sensor_id;sensor_type;location;lat;lon;timestamp;P1;durP1;ratioP1;P2;durP2;ratioP2
83290;SDS011;73860;48.866;9.316;2023-12-29T00:00:07;3.40;;;1.70;;
83290;SDS011;73860;48.866;9.316;2023-12-29T00:02:37;4.40;;;1.80;;
83290;SDS011;73860;48.866;9.316;2023-12-29T00:05:07;3.70;;;1.50;;
83290;SDS011;73860;48.866;9.316;2023-12-29T00:07:36;4.10;;;1.70;;
83290;SDS011;73860;48.866;9.316;2023-12-29T00:10:07;4.60;;;1.60;;
83290;SDS011;73860;48.866;9.316;2023-12-29T00:12:36;3.10;;;1.40;;
83290;SDS011;73860;48.866;9.316;2023-12-29T00:15:06;4.80;;;1.50;;
83290;SDS011;73860;48.866;9.316;2023-12-29T00:17:36;4.00;;;1.70;;
83290;SDS011;73860;48.866;9.316;2023-12-29T00:20:08;4.10;;;1.70;;
83290;SDS011;73860;48.866;9.316;2023-12-29T00:22:38;4.50;;;2.00;;
83290;SDS011;73860;48.866;9.316;2023-12-29T00:25:07;5.40;;;2.00;;
83290;SDS011;73860;48.866;9.316;2023-12-29T00:27:37;4.30;;;2.00;;
83290;SDS011;73860;48.866;9.316;2023-12-29T00:30:07;4.80;;;2.00;;
83290;SDS011;73860;48.866;9.316;2023-12-29T00:32:37;3.90;;;1.80;;
83290;SDS011;73860;48.866;9.316;2023-12-29T00:35:07;4.80;;;1.70;;
83290;SDS011;73860;48.866;9.316;2023-12-29T00:37:37;3.90;;;1.70;;
83290;SDS011;73860;48.866;9.316;2023-12-29T00:40:08;4.90;;;1.90;;
83290;SDS011;73860;48.866;9.316;2023-12-29T00:42:38;3.70;;;1.80;;
83290;SDS011;73860;48.866;9.316;2023-12-29T00:45:08;4.40;;;1.90;;
83290;SDS011;73860;48.866;9.316;2023-12-29T00:47:38;6.20;;;2.70;;
83290;SDS011;73860;48.866;9.316;2023-12-29T00:50:07;5.30;;;2.30;;
83290;SDS011;73860;48.866;9.316;2023-12-29T00:52:36;3.60;;;1.70;;
83290;SDS011;73860;48.866;9.316;2023-12-29T00:55:07;3.80;;;1.60;;
83290;SDS011;73860;48.866;9.316;2023-12-29T00:57:36;4.40;;;1.90;;
83290;SDS011;73860;48.866;9.316;2023-12-29T01:00:07;3.80;;;1.80;;
83290;SDS011;73860;48.866;9.316;2023-12-29T01:02:38;5.90;;;2.30;;
83290;SDS011;73860;48.866;9.316;2023-12-29T01:05:08;4.70;;;2.30;;
83290;SDS011;73860;48.866;9.316;2023-12-29T01:07:37;4.90;;;2.10;;
83290;SDS011;73860;48.866;9.316;2023-12-29T01:10:07;4.10;;;1.90;;
83290;SDS011;73860;48.866;9.316;2023-12-29T01:12:37;4.00;;;1.70;;
83290;SDS011;73860;48.866;9.316;2023-12-29T01:15:07;5.10;;;2.10;;
83290;SDS011;73860;48.866;9.316;2023-12-29T01:17:37;4.90;;;1.80;;
83290;SDS011;73860;48.866;9.316;2023-12-29T01:20:07;5.10;;;1.90;;
83290;SDS011;73860;48.866;9.316;2023-12-29T01:22:37;3.80;;;1.70;;
83290;SDS011;73860;48.866;9.316;2023-12-29T01:25:06;4.80;;;1.80;;
83290;SDS011;73860;48.866;9.316;2023-12-29T01:27:36;6.10;;;2.10;;
83290;SDS011;73860;48.866;9.316;2023-12-29T01:30:06;5.20;;;2.10;;
83290;SDS011;73860;48.866;9.316;2023-12-29T01:32:37;4.90;;;1.90;;
83290;SDS011;73860;48.866;9.316;2023-12-29T01:35:07;5.00;;;1.80;;
83290;SDS011;73860;48.866;9.316;2023-12-29T01:37:36;4.50;;;1.80;;
83290;SDS011;73860;48.866;9.316;2023-12-29T01:40:06;5.40;;;2.40;;
83290;SDS011;73860;48.866;9.316;2023-12-29T01:42:36;4.50;;;2.00;;
83290;SDS011;73860;48.866;9.316;2023-12-29T01:45:07;5.30;;;2.10;;
83290;SDS011;73860;48.866;9.316;2023-12-29T01:50:15;4.50;;;2.00;;
83290;SDS011;73860;48.866;9.316;2023-12-29T01:52:45;6.00;;;2.40;;
83290;SDS011;73860;48.866;9.316;2023-12-29T01:55:15;4.90;;;2.00;;
83290;SDS011;73860;48.866;9.316;2023-12-29T01:57:47;5.50;;;2.20;;
83290;SDS011;73860;48.866;9.316;2023-12-29T02:00:17;4.00;;;1.90;;
83290;SDS011;73860;48.866;9.316;2023-12-29T02:02:46;5.50;;;2.30;;
83290;SDS011;73860;48.866;9.316;2023-12-29T02:05:16;3.20;;;1.60;;
83290;SDS011;73860;48.866;9.316;2023-12-29T02:07:46;4.50;;;1.90;;
83290;SDS011;73860;48.866;9.316;2023-12-29T02:10:18;4.50;;;2.10;;
83290;SDS011;73860;48.866;9.316;2023-12-29T02:12:49;4.80;;;2.20;;
83290;SDS011;73860;48.866;9.316;2023-12-29T02:15:20;4.50;;;2.30;;
83290;SDS011;73860;48.866;9.316;2023-12-29T02:17:51;5.30;;;2.00;;
83290;SDS011;73860;48.866;9.316;2023-12-29T02:20:23;5.70;;;2.20;;
83290;SDS011;73860;48.866;9.316;2023-12-29T02:22:52;7.10;;;2.20;;
83290;SDS011;73860;48.866;9.316;2023-12-29T02:25:22;5.00;;;2.20;;
83290;SDS011;73860;48.866;9.316;2023-12-29T02:27:52;6.40;;;2.50;;
83290;SDS011;73860;48.866;9.316;2023-12-29T02:30:25;6.10;;;2.40;;
83290;SDS011;73860;48.866;9.316;2023-12-29T02:33:01;5.50;;;2.60;;
83290;SDS011;73860;48.866;9.316;2023-12-29T02:35:34;7.70;;;2.70;;
83290;SDS011;73860;48.866;9.316;2023-12-29T02:38:05;4.90;;;2.40;;
83290;SDS011;73860;48.866;9.316;2023-12-29T02:40:34;4.70;;;2.10;;
83290;SDS011;73860;48.866;9.316;2023-12-29T02:43:04;5.30;;;2.20;;
83290;SDS011;73860;48.866;9.316;2023-12-29T02:45:33;5.90;;;2.40;;
83290;SDS011;73860;48.866;9.316;2023-12-29T02:48:02;4.90;;;2.30;;
83290;SDS011;73860;48.866;9.316;2023-12-29T02:50:32;6.30;;;2.40;;
83290;SDS011;73860;48.866;9.316;2023-12-29T02:53:01;6.50;;;2.50;;
83290;SDS011;73860;48.866;9.316;2023-12-29T02:55:30;6.70;;;2.80;;
83290;SDS011;73860;48.866;9.316;2023-12-29T02:57:59;5.70;;;2.30;;
83290;SDS011;73860;48.866;9.316;2023-12-29T03:00:28;6.20;;;2.50;;
83290;SDS011;73860;48.866;9.316;2023-12-29T03:02:57;5.10;;;2.10;;
83290;SDS011;73860;48.866;9.316;2023-12-29T03:05:26;6.10;;;2.40;;
83290;SDS011;73860;48.866;9.316;2023-12-29T03:07:56;5.70;;;2.50;;
83290;SDS011;73860;48.866;9.316;2023-12-29T03:10:25;6.20;;;2.60;;
83290;SDS011;73860;48.866;9.316;2023-12-29T03:12:54;6.60;;;2.70;;
83290;SDS011;73860;48.866;9.316;2023-12-29T03:15:23;5.70;;;2.60;;
83290;SDS011;73860;48.866;9.316;2023-12-29T03:17:52;5.50;;;2.40;;
83290;SDS011;73860;48.866;9.316;2023-12-29T03:20:21;4.80;;;2.20;;
83290;SDS011;73860;48.866;9.316;2023-12-29T03:22:50;4.80;;;2.20;;
83290;SDS011;73860;48.866;9.316;2023-12-29T03:25:19;5.70;;;2.30;;
83290;SDS011;73860;48.866;9.316;2023-12-29T03:27:48;4.70;;;2.30;;
83290;SDS011;73860;48.866;9.316;2023-12-29T03:30:17;5.70;;;2.40;;
83290;SDS011;73860;48.866;9.316;2023-12-29T03:32:46;4.80;;;2.30;;
83290;SDS011;73860;48.866;9.316;2023-12-29T03:35:15;6.80;;;2.60;;
83290;SDS011;73860;48.866;9.316;2023-12-29T03:37:44;5.60;;;2.20;;
83290;SDS011;73860;48.866;9.316;2023-12-29T03:40:13;6.30;;;2.50;;
83290;SDS011;73860;48.866;9.316;2023-12-29T03:42:43;5.40;;;2.10;;
83290;SDS011;73860;48.866;9.316;2023-12-29T03:45:12;5.40;;;2.30;;
83290;SDS011;73860;48.866;9.316;2023-12-29T03:47:41;5.20;;;2.20;;
83290;SDS011;73860;48.866;9.316;2023-12-29T03:50:10;6.50;;;2.60;;
83290;SDS011;73860;48.866;9.316;2023-12-29T03:52:39;6.50;;;3.20;;
83290;SDS011;73860;48.866;9.316;2023-12-29T03:55:09;5.60;;;2.50;;
83290;SDS011;73860;48.866;9.316;2023-12-29T03:57:38;5.30;;;2.10;;
83290;SDS011;73860;48.866;9.316;2023-12-29T04:00:11;5.80;;;2.50;;
83290;SDS011;73860;48.866;9.316;2023-12-29T04:02:41;5.40;;;2.50;;
83290;SDS011;73860;48.866;9.316;2023-12-29T04:05:11;6.40;;;2.20;;
83290;SDS011;73860;48.866;9.316;2023-12-29T04:07:40;4.40;;;2.10;;
83290;SDS011;73860;48.866;9.316;2023-12-29T04:10:09;4.40;;;2.10;;
83290;SDS011;73860;48.866;9.316;2023-12-29T04:12:38;5.90;;;2.80;;
83290;SDS011;73860;48.866;9.316;2023-12-29T04:15:09;4.80;;;2.30;;
83290;SDS011;73860;48.866;9.316;2023-12-29T04:17:38;4.90;;;2.20;;
83290;SDS011;73860;48.866;9.316;2023-12-29T04:20:08;5.00;;;2.30;;
83290;SDS011;73860;48.866;9.316;2023-12-29T04:22:38;6.00;;;2.30;;
83290;SDS011;73860;48.866;9.316;2023-12-29T04:25:07;4.40;;;2.10;;
83290;SDS011;73860;48.866;9.316;2023-12-29T04:27:37;4.20;;;2.10;;
83290;SDS011;73860;48.866;9.316;2023-12-29T04:30:08;5.00;;;2.30;;
83290;SDS011;73860;48.866;9.316;2023-12-29T04:32:38;5.30;;;1.70;;
83290;SDS011;73860;48.866;9.316;2023-12-29T04:35:07;4.20;;;1.80;;
83290;SDS011;73860;48.866;9.316;2023-12-29T04:37:39;4.70;;;2.10;;
83290;SDS011;73860;48.866;9.316;2023-12-29T04:40:09;3.80;;;1.80;;
83290;SDS011;73860;48.866;9.316;2023-12-29T04:42:38;5.20;;;2.30;;
83290;SDS011;73860;48.866;9.316;2023-12-29T04:45:08;4.90;;;2.00;;
83290;SDS011;73860;48.866;9.316;2023-12-29T04:47:37;4.30;;;1.90;;
83290;SDS011;73860;48.866;9.316;2023-12-29T04:50:07;4.50;;;1.80;;
83290;SDS011;73860;48.866;9.316;2023-12-29T04:52:36;5.40;;;2.10;;
83290;SDS011;73860;48.866;9.316;2023-12-29T04:55:06;3.30;;;1.50;;
83290;SDS011;73860;48.866;9.316;2023-12-29T04:57:36;4.80;;;2.30;;
83290;SDS011;73860;48.866;9.316;2023-12-29T05:00:06;4.50;;;1.70;;
83290;SDS011;73860;48.866;9.316;2023-12-29T05:02:36;4.80;;;1.80;;
83290;SDS011;73860;48.866;9.316;2023-12-29T05:05:06;5.10;;;2.20;;
83290;SDS011;73860;48.866;9.316;2023-12-29T05:07:36;4.70;;;2.10;;
83290;SDS011;73860;48.866;9.316;2023-12-29T05:10:06;4.10;;;1.70;;
83290;SDS011;73860;48.866;9.316;2023-12-29T05:12:36;4.90;;;2.00;;
83290;SDS011;73860;48.866;9.316;2023-12-29T05:15:06;4.80;;;2.00;;
83290;SDS011;73860;48.866;9.316;2023-12-29T05:17:36;3.40;;;1.60;;
83290;SDS011;73860;48.866;9.316;2023-12-29T05:20:06;5.30;;;1.90;;
83290;SDS011;73860;48.866;9.316;2023-12-29T05:22:37;5.30;;;2.00;;
83290;SDS011;73860;48.866;9.316;2023-12-29T05:25:07;4.50;;;1.80;;
83290;SDS011;73860;48.866;9.316;2023-12-29T05:27:36;4.40;;;2.10;;
83290;SDS011;73860;48.866;9.316;2023-12-29T05:30:06;4.70;;;1.80;;
83290;SDS011;73860;48.866;9.316;2023-12-29T05:32:36;5.80;;;2.10;;
83290;SDS011;73860;48.866;9.316;2023-12-29T05:35:06;4.60;;;2.00;;
83290;SDS011;73860;48.866;9.316;2023-12-29T05:37:36;4.70;;;2.20;;
83290;SDS011;73860;48.866;9.316;2023-12-29T05:40:06;5.10;;;2.00;;
83290;SDS011;73860;48.866;9.316;2023-12-29T05:42:36;4.10;;;1.80;;
83290;SDS011;73860;48.866;9.316;2023-12-29T05:45:06;4.80;;;2.10;;
83290;SDS011;73860;48.866;9.316;2023-12-29T05:47:36;4.70;;;1.80;;
83290;SDS011;73860;48.866;9.316;2023-12-29T05:50:06;5.40;;;2.20;;
83290;SDS011;73860;48.866;9.316;2023-12-29T05:52:35;4.20;;;2.10;;
83290;SDS011;73860;48.866;9.316;2023-12-29T05:55:05;6.80;;;2.50;;
83290;SDS011;73860;48.866;9.316;2023-12-29T05:57:35;5.30;;;2.10;;
83290;SDS011;73860;48.866;9.316;2023-12-29T06:00:05;4.70;;;2.10;;
83290;SDS011;73860;48.866;9.316;2023-12-29T06:02:40;4.60;;;2.00;;
83290;SDS011;73860;48.866;9.316;2023-12-29T06:05:09;5.50;;;1.90;;
83290;SDS011;73860;48.866;9.316;2023-12-29T06:07:39;4.60;;;1.90;;
83290;SDS011;73860;48.866;9.316;2023-12-29T06:10:09;3.70;;;1.80;;
83290;SDS011;73860;48.866;9.316;2023-12-29T06:12:38;4.80;;;2.10;;
83290;SDS011;73860;48.866;9.316;2023-12-29T06:15:08;4.60;;;2.00;;
83290;SDS011;73860;48.866;9.316;2023-12-29T06:20:09;5.80;;;2.50;;
83290;SDS011;73860;48.866;9.316;2023-12-29T06:22:40;5.20;;;2.30;;
83290;SDS011;73860;48.866;9.316;2023-12-29T06:25:10;4.30;;;2.10;;
83290;SDS011;73860;48.866;9.316;2023-12-29T06:27:39;7.00;;;2.70;;
83290;SDS011;73860;48.866;9.316;2023-12-29T06:30:09;5.20;;;2.20;;
83290;SDS011;73860;48.866;9.316;2023-12-29T06:32:39;5.00;;;2.10;;
83290;SDS011;73860;48.866;9.316;2023-12-29T06:35:08;5.80;;;2.20;;
83290;SDS011;73860;48.866;9.316;2023-12-29T06:37:38;5.40;;;2.30;;
83290;SDS011;73860;48.866;9.316;2023-12-29T06:40:08;5.50;;;2.70;;
83290;SDS011;73860;48.866;9.316;2023-12-29T06:42:38;5.20;;;2.40;;
83290;SDS011;73860;48.866;9.316;2023-12-29T06:45:08;5.40;;;2.40;;
83290;SDS011;73860;48.866;9.316;2023-12-29T06:47:37;5.90;;;2.70;;
83290;SDS011;73860;48.866;9.316;2023-12-29T06:50:07;5.40;;;2.30;;
83290;SDS011;73860;48.866;9.316;2023-12-29T06:52:39;6.00;;;2.50;;
83290;SDS011;73860;48.866;9.316;2023-12-29T06:55:08;5.00;;;2.70;;
83290;SDS011;73860;48.866;9.316;2023-12-29T06:57:37;6.50;;;2.50;;
83290;SDS011;73860;48.866;9.316;2023-12-29T07:00:07;5.90;;;2.40;;
83290;SDS011;73860;48.866;9.316;2023-12-29T07:02:38;5.70;;;2.30;;
83290;SDS011;73860;48.866;9.316;2023-12-29T07:05:08;5.00;;;2.00;;
83290;SDS011;73860;48.866;9.316;2023-12-29T07:07:37;4.20;;;1.80;;
83290;SDS011;73860;48.866;9.316;2023-12-29T07:10:07;4.50;;;2.10;;
83290;SDS011;73860;48.866;9.316;2023-12-29T07:12:40;4.40;;;2.00;;
83290;SDS011;73860;48.866;9.316;2023-12-29T07:15:09;4.10;;;1.70;;
83290;SDS011;73860;48.866;9.316;2023-12-29T07:17:40;6.00;;;2.00;;
83290;SDS011;73860;48.866;9.316;2023-12-29T07:20:09;4.30;;;1.80;;
83290;SDS011;73860;48.866;9.316;2023-12-29T07:22:39;5.10;;;2.10;;
83290;SDS011;73860;48.866;9.316;2023-12-29T07:25:08;3.50;;;1.50;;
83290;SDS011;73860;48.866;9.316;2023-12-29T07:27:39;4.20;;;1.60;;
83290;SDS011;73860;48.866;9.316;2023-12-29T07:30:09;3.60;;;1.60;;
83290;SDS011;73860;48.866;9.316;2023-12-29T07:32:40;4.10;;;1.60;;
83290;SDS011;73860;48.866;9.316;2023-12-29T07:35:10;3.80;;;1.60;;
83290;SDS011;73860;48.866;9.316;2023-12-29T07:37:42;4.40;;;1.80;;
83290;SDS011;73860;48.866;9.316;2023-12-29T07:40:12;4.70;;;1.80;;
83290;SDS011;73860;48.866;9.316;2023-12-29T07:42:41;4.70;;;1.70;;
83290;SDS011;73860;48.866;9.316;2023-12-29T07:45:13;4.30;;;1.60;;
83290;SDS011;73860;48.866;9.316;2023-12-29T07:47:42;4.10;;;1.80;;
83290;SDS011;73860;48.866;9.316;2023-12-29T07:50:11;3.60;;;1.70;;
83290;SDS011;73860;48.866;9.316;2023-12-29T07:52:41;3.50;;;1.70;;
83290;SDS011;73860;48.866;9.316;2023-12-29T07:55:11;3.50;;;1.70;;
83290;SDS011;73860;48.866;9.316;2023-12-29T07:57:42;4.90;;;2.10;;
83290;SDS011;73860;48.866;9.316;2023-12-29T08:00:14;4.30;;;1.80;;
83290;SDS011;73860;48.866;9.316;2023-12-29T08:02:44;4.50;;;1.90;;
83290;SDS011;73860;48.866;9.316;2023-12-29T08:05:13;3.30;;;1.40;;
83290;SDS011;73860;48.866;9.316;2023-12-29T08:07:43;3.10;;;1.20;;
83290;SDS011;73860;48.866;9.316;2023-12-29T08:10:12;3.90;;;1.50;;
83290;SDS011;73860;48.866;9.316;2023-12-29T08:12:41;4.30;;;1.40;;
83290;SDS011;73860;48.866;9.316;2023-12-29T08:15:11;4.10;;;1.70;;
83290;SDS011;73860;48.866;9.316;2023-12-29T08:17:40;4.50;;;1.50;;
83290;SDS011;73860;48.866;9.316;2023-12-29T08:20:10;2.90;;;1.50;;
83290;SDS011;73860;48.866;9.316;2023-12-29T08:22:41;4.00;;;1.50;;
83290;SDS011;73860;48.866;9.316;2023-12-29T08:25:10;4.10;;;1.60;;
83290;SDS011;73860;48.866;9.316;2023-12-29T08:27:39;2.60;;;1.40;;
83290;SDS011;73860;48.866;9.316;2023-12-29T08:30:09;2.50;;;1.40;;
83290;SDS011;73860;48.866;9.316;2023-12-29T08:32:39;4.20;;;1.60;;
83290;SDS011;73860;48.866;9.316;2023-12-29T08:35:09;5.60;;;1.70;;
83290;SDS011;73860;48.866;9.316;2023-12-29T08:37:38;2.30;;;1.10;;
83290;SDS011;73860;48.866;9.316;2023-12-29T08:40:08;4.30;;;1.50;;
83290;SDS011;73860;48.866;9.316;2023-12-29T08:42:38;4.00;;;1.60;;
83290;SDS011;73860;48.866;9.316;2023-12-29T08:45:08;3.20;;;1.40;;
83290;SDS011;73860;48.866;9.316;2023-12-29T08:47:37;4.20;;;1.60;;
83290;SDS011;73860;48.866;9.316;2023-12-29T08:50:07;3.70;;;1.40;;
83290;SDS011;73860;48.866;9.316;2023-12-29T08:52:36;3.60;;;1.30;;
83290;SDS011;73860;48.866;9.316;2023-12-29T08:55:06;2.80;;;1.40;;
83290;SDS011;73860;48.866;9.316;2023-12-29T08:57:36;2.60;;;1.30;;
83290;SDS011;73860;48.866;9.316;2023-12-29T09:00:07;4.00;;;1.60;;
83290;SDS011;73860;48.866;9.316;2023-12-29T09:02:37;3.40;;;1.50;;
83290;SDS011;73860;48.866;9.316;2023-12-29T09:05:08;3.80;;;1.40;;
83290;SDS011;73860;48.866;9.316;2023-12-29T09:07:37;4.10;;;1.40;;
83290;SDS011;73860;48.866;9.316;2023-12-29T09:10:07;4.20;;;1.40;;
83290;SDS011;73860;48.866;9.316;2023-12-29T09:12:39;4.50;;;2.30;;
83290;SDS011;73860;48.866;9.316;2023-12-29T09:15:08;3.50;;;1.50;;
83290;SDS011;73860;48.866;9.316;2023-12-29T09:17:38;4.50;;;1.50;;
83290;SDS011;73860;48.866;9.316;2023-12-29T09:20:08;4.60;;;1.70;;
83290;SDS011;73860;48.866;9.316;2023-12-29T09:22:38;7.30;;;2.80;;
83290;SDS011;73860;48.866;9.316;2023-12-29T09:25:07;6.00;;;2.70;;
83290;SDS011;73860;48.866;9.316;2023-12-29T09:27:36;9.30;;;3.70;;
83290;SDS011;73860;48.866;9.316;2023-12-29T09:30:07;7.80;;;3.50;;
83290;SDS011;73860;48.866;9.316;2023-12-29T09:32:37;6.40;;;2.90;;
83290;SDS011;73860;48.866;9.316;2023-12-29T09:35:06;4.80;;;2.00;;
83290;SDS011;73860;48.866;9.316;2023-12-29T09:37:35;7.40;;;3.50;;
83290;SDS011;73860;48.866;9.316;2023-12-29T09:40:06;8.60;;;3.90;;
83290;SDS011;73860;48.866;9.316;2023-12-29T09:42:36;7.20;;;3.30;;
83290;SDS011;73860;48.866;9.316;2023-12-29T09:45:09;5.60;;;2.60;;
83290;SDS011;73860;48.866;9.316;2023-12-29T09:47:39;4.60;;;1.80;;
83290;SDS011;73860;48.866;9.316;2023-12-29T09:50:11;4.00;;;1.80;;
83290;SDS011;73860;48.866;9.316;2023-12-29T09:52:41;4.10;;;1.70;;
83290;SDS011;73860;48.866;9.316;2023-12-29T09:55:11;4.10;;;1.40;;
83290;SDS011;73860;48.866;9.316;2023-12-29T09:57:40;3.30;;;1.50;;
83290;SDS011;73860;48.866;9.316;2023-12-29T10:00:11;3.70;;;1.60;;
83290;SDS011;73860;48.866;9.316;2023-12-29T10:02:41;3.70;;;1.50;;
83290;SDS011;73860;48.866;9.316;2023-12-29T10:05:10;4.40;;;2.10;;
83290;SDS011;73860;48.866;9.316;2023-12-29T10:07:39;6.10;;;2.80;;
83290;SDS011;73860;48.866;9.316;2023-12-29T10:10:10;6.80;;;2.80;;
83290;SDS011;73860;48.866;9.316;2023-12-29T10:12:43;5.20;;;1.70;;
83290;SDS011;73860;48.866;9.316;2023-12-29T10:15:15;5.50;;;1.70;;
83290;SDS011;73860;48.866;9.316;2023-12-29T10:17:51;6.80;;;3.30;;
83290;SDS011;73860;48.866;9.316;2023-12-29T10:20:25;6.50;;;2.50;;
83290;SDS011;73860;48.866;9.316;2023-12-29T10:23:03;6.50;;;2.90;;
83290;SDS011;73860;48.866;9.316;2023-12-29T10:25:36;3.00;;;1.30;;
83290;SDS011;73860;48.866;9.316;2023-12-29T10:28:05;3.50;;;1.40;;
83290;SDS011;73860;48.866;9.316;2023-12-29T10:30:34;5.50;;;1.90;;
83290;SDS011;73860;48.866;9.316;2023-12-29T10:33:04;3.90;;;1.40;;
83290;SDS011;73860;48.866;9.316;2023-12-29T10:35:35;3.00;;;1.30;;
83290;SDS011;73860;48.866;9.316;2023-12-29T10:38:11;2.70;;;1.10;;
83290;SDS011;73860;48.866;9.316;2023-12-29T10:40:41;3.20;;;1.20;;
83290;SDS011;73860;48.866;9.316;2023-12-29T10:43:10;3.10;;;1.00;;
83290;SDS011;73860;48.866;9.316;2023-12-29T10:45:39;4.00;;;1.40;;
83290;SDS011;73860;48.866;9.316;2023-12-29T10:48:08;2.10;;;1.00;;
83290;SDS011;73860;48.866;9.316;2023-12-29T10:50:44;3.30;;;1.20;;
83290;SDS011;73860;48.866;9.316;2023-12-29T10:53:13;4.20;;;1.30;;
83290;SDS011;73860;48.866;9.316;2023-12-29T10:55:43;2.70;;;1.00;;
83290;SDS011;73860;48.866;9.316;2023-12-29T10:58:15;2.90;;;1.10;;
83290;SDS011;73860;48.866;9.316;2023-12-29T11:00:45;3.40;;;1.50;;
83290;SDS011;73860;48.866;9.316;2023-12-29T11:03:15;2.30;;;1.10;;
83290;SDS011;73860;48.866;9.316;2023-12-29T11:05:44;3.30;;;1.00;;
83290;SDS011;73860;48.866;9.316;2023-12-29T11:08:17;3.00;;;1.00;;
83290;SDS011;73860;48.866;9.316;2023-12-29T11:10:48;3.20;;;1.10;;
83290;SDS011;73860;48.866;9.316;2023-12-29T11:13:17;2.00;;;0.70;;
83290;SDS011;73860;48.866;9.316;2023-12-29T11:15:47;2.20;;;0.90;;
83290;SDS011;73860;48.866;9.316;2023-12-29T11:18:17;2.00;;;0.80;;
83290;SDS011;73860;48.866;9.316;2023-12-29T11:20:46;1.90;;;1.00;;
83290;SDS011;73860;48.866;9.316;2023-12-29T11:23:16;1.60;;;0.90;;
83290;SDS011;73860;48.866;9.316;2023-12-29T11:25:45;2.10;;;0.80;;
83290;SDS011;73860;48.866;9.316;2023-12-29T11:28:15;4.00;;;1.30;;
83290;SDS011;73860;48.866;9.316;2023-12-29T11:30:44;2.20;;;0.90;;
83290;SDS011;73860;48.866;9.316;2023-12-29T11:33:17;2.20;;;0.80;;
83290;SDS011;73860;48.866;9.316;2023-12-29T11:35:50;1.80;;;0.80;;
83290;SDS011;73860;48.866;9.316;2023-12-29T11:38:24;7.00;;;2.60;;
83290;SDS011;73860;48.866;9.316;2023-12-29T11:41:02;4.70;;;1.60;;
83290;SDS011;73860;48.866;9.316;2023-12-29T11:43:36;8.20;;;2.50;;
83290;SDS011;73860;48.866;9.316;2023-12-29T11:46:05;10.10;;;4.40;;
83290;SDS011;73860;48.866;9.316;2023-12-29T11:51:31;9.20;;;3.50;;
83290;SDS011;73860;48.866;9.316;2023-12-29T11:54:02;10.50;;;4.50;;
83290;SDS011;73860;48.866;9.316;2023-12-29T11:56:33;8.70;;;3.50;;
83290;SDS011;73860;48.866;9.316;2023-12-29T11:59:16;6.10;;;2.40;;
83290;SDS011;73860;48.866;9.316;2023-12-29T12:01:47;5.80;;;2.30;;
83290;SDS011;73860;48.866;9.316;2023-12-29T12:07:07;5.20;;;1.70;;
83290;SDS011;73860;48.866;9.316;2023-12-29T12:09:40;6.40;;;2.30;;
83290;SDS011;73860;48.866;9.316;2023-12-29T12:12:09;3.80;;;1.40;;
83290;SDS011;73860;48.866;9.316;2023-12-29T12:14:46;2.10;;;0.90;;
83290;SDS011;73860;48.866;9.316;2023-12-29T12:17:32;4.00;;;1.70;;
83290;SDS011;73860;48.866;9.316;2023-12-29T12:20:06;2.90;;;1.50;;
83290;SDS011;73860;48.866;9.316;2023-12-29T12:22:36;1.80;;;1.00;;
83290;SDS011;73860;48.866;9.316;2023-12-29T12:25:06;1.80;;;0.80;;
83290;SDS011;73860;48.866;9.316;2023-12-29T12:27:37;1.30;;;0.70;;
83290;SDS011;73860;48.866;9.316;2023-12-29T12:30:07;3.30;;;1.00;;
83290;SDS011;73860;48.866;9.316;2023-12-29T12:32:37;2.10;;;0.80;;
83290;SDS011;73860;48.866;9.316;2023-12-29T12:35:07;1.70;;;0.70;;
83290;SDS011;73860;48.866;9.316;2023-12-29T12:37:43;1.80;;;0.90;;
83290;SDS011;73860;48.866;9.316;2023-12-29T12:40:13;2.50;;;0.90;;
83290;SDS011;73860;48.866;9.316;2023-12-29T12:42:53;1.50;;;0.80;;
83290;SDS011;73860;48.866;9.316;2023-12-29T12:45:23;1.80;;;0.90;;
83290;SDS011;73860;48.866;9.316;2023-12-29T12:47:59;2.20;;;0.80;;
83290;SDS011;73860;48.866;9.316;2023-12-29T12:50:29;1.60;;;0.70;;
83290;SDS011;73860;48.866;9.316;2023-12-29T12:52:58;1.80;;;0.80;;
83290;SDS011;73860;48.866;9.316;2023-12-29T12:55:35;2.30;;;1.10;;
83290;SDS011;73860;48.866;9.316;2023-12-29T12:58:05;2.20;;;0.90;;
83290;SDS011;73860;48.866;9.316;2023-12-29T13:00:34;2.20;;;0.90;;
83290;SDS011;73860;48.866;9.316;2023-12-29T13:03:04;2.00;;;0.80;;
83290;SDS011;73860;48.866;9.316;2023-12-29T13:05:33;1.90;;;1.00;;
83290;SDS011;73860;48.866;9.316;2023-12-29T13:08:04;2.20;;;1.00;;
83290;SDS011;73860;48.866;9.316;2023-12-29T13:10:34;1.60;;;0.70;;
83290;SDS011;73860;48.866;9.316;2023-12-29T13:13:09;1.90;;;0.90;;
83290;SDS011;73860;48.866;9.316;2023-12-29T13:15:46;2.30;;;0.90;;
83290;SDS011;73860;48.866;9.316;2023-12-29T13:18:15;2.50;;;0.90;;
83290;SDS011;73860;48.866;9.316;2023-12-29T13:20:45;1.60;;;1.00;;
83290;SDS011;73860;48.866;9.316;2023-12-29T13:23:15;3.00;;;1.00;;
83290;SDS011;73860;48.866;9.316;2023-12-29T13:25:46;7.40;;;3.20;;
83290;SDS011;73860;48.866;9.316;2023-12-29T13:28:15;11.10;;;5.40;;
83290;SDS011;73860;48.866;9.316;2023-12-29T13:30:45;7.80;;;3.50;;
83290;SDS011;73860;48.866;9.316;2023-12-29T13:33:16;9.70;;;3.80;;
83290;SDS011;73860;48.866;9.316;2023-12-29T13:35:53;9.80;;;4.40;;
83290;SDS011;73860;48.866;9.316;2023-12-29T13:40:54;6.10;;;2.10;;
83290;SDS011;73860;48.866;9.316;2023-12-29T13:43:25;5.80;;;2.50;;
83290;SDS011;73860;48.866;9.316;2023-12-29T13:45:55;5.70;;;2.40;;
83290;SDS011;73860;48.866;9.316;2023-12-29T13:48:25;4.10;;;1.80;;
83290;SDS011;73860;48.866;9.316;2023-12-29T13:50:54;4.90;;;2.10;;
83290;SDS011;73860;48.866;9.316;2023-12-29T13:53:23;4.50;;;1.80;;
83290;SDS011;73860;48.866;9.316;2023-12-29T13:55:52;3.90;;;1.60;;
83290;SDS011;73860;48.866;9.316;2023-12-29T13:58:22;2.60;;;1.20;;
83290;SDS011;73860;48.866;9.316;2023-12-29T14:00:56;3.30;;;1.20;;
83290;SDS011;73860;48.866;9.316;2023-12-29T14:03:27;2.10;;;1.00;;
83290;SDS011;73860;48.866;9.316;2023-12-29T14:06:00;2.40;;;1.20;;
83290;SDS011;73860;48.866;9.316;2023-12-29T14:08:38;5.40;;;2.50;;
83290;SDS011;73860;48.866;9.316;2023-12-29T14:11:08;5.50;;;2.00;;
83290;SDS011;73860;48.866;9.316;2023-12-29T14:13:42;5.40;;;2.30;;
83290;SDS011;73860;48.866;9.316;2023-12-29T14:16:11;6.90;;;3.40;;
83290;SDS011;73860;48.866;9.316;2023-12-29T14:18:46;3.90;;;1.60;;
83290;SDS011;73860;48.866;9.316;2023-12-29T14:21:22;6.00;;;2.80;;
83290;SDS011;73860;48.866;9.316;2023-12-29T14:24:02;5.10;;;2.00;;
83290;SDS011;73860;48.866;9.316;2023-12-29T14:26:36;3.00;;;1.30;;
83290;SDS011;73860;48.866;9.316;2023-12-29T14:29:07;2.30;;;0.90;;
83290;SDS011;73860;48.866;9.316;2023-12-29T14:31:38;3.00;;;1.30;;
83290;SDS011;73860;48.866;9.316;2023-12-29T14:34:08;2.60;;;1.20;;
83290;SDS011;73860;48.866;9.316;2023-12-29T14:36:38;2.90;;;1.20;;
83290;SDS011;73860;48.866;9.316;2023-12-29T14:39:08;2.10;;;1.10;;
83290;SDS011;73860;48.866;9.316;2023-12-29T14:41:38;4.20;;;1.40;;
83290;SDS011;73860;48.866;9.316;2023-12-29T14:44:07;5.70;;;2.30;;
83290;SDS011;73860;48.866;9.316;2023-12-29T14:46:37;7.80;;;2.70;;
83290;SDS011;73860;48.866;9.316;2023-12-29T14:49:07;3.40;;;1.40;;
83290;SDS011;73860;48.866;9.316;2023-12-29T14:51:36;3.80;;;1.70;;
83290;SDS011;73860;48.866;9.316;2023-12-29T14:54:05;4.00;;;1.70;;
83290;SDS011;73860;48.866;9.316;2023-12-29T14:56:34;5.20;;;1.90;;
83290;SDS011;73860;48.866;9.316;2023-12-29T14:59:03;4.80;;;1.70;;
83290;SDS011;73860;48.866;9.316;2023-12-29T15:01:32;8.70;;;3.30;;
83290;SDS011;73860;48.866;9.316;2023-12-29T15:04:01;7.80;;;2.90;;
83290;SDS011;73860;48.866;9.316;2023-12-29T15:06:31;3.40;;;1.10;;
83290;SDS011;73860;48.866;9.316;2023-12-29T15:09:00;5.90;;;2.00;;
83290;SDS011;73860;48.866;9.316;2023-12-29T15:11:29;3.30;;;1.30;;
83290;SDS011;73860;48.866;9.316;2023-12-29T15:13:58;4.80;;;1.60;;
83290;SDS011;73860;48.866;9.316;2023-12-29T15:16:28;5.60;;;2.10;;
83290;SDS011;73860;48.866;9.316;2023-12-29T15:18:57;7.20;;;3.00;;